Time;durP1;ratioP1;P1;durP2;ratioP2;P2;SDS_P1;SDS_P2;PMS_P1;PMS_P2;Temp;Humidity;BMP_temperature;BMP_pressure;BME280_temperature;BME280_humidity;BME280_pressure;Samples;Min_cycle;Max_cycle;Signal;HPM_P1;HPM_P2
2023/07/20 00:00:22;;;;;;;6.05;4.18;;;;;;;18.68;67.40;101290.22;5016880;28;20182;-81
2023/07/20 00:02:50;;;;;;;6.40;4.70;;;;;;;18.68;67.96;101293.75;5026051;28;20026;-81
2023/07/20 00:05:18;;;;;;;10.45;4.93;;;;;;;18.56;68.44;101284.75;5013593;28;20473;-81
2023/07/20 00:07:43;;;;;;;7.70;5.05;;;;;;;18.32;69.26;101295.22;5020537;28;20079;-81
2023/07/20 00:10:09;;;;;;;7.88;5.05;;;;;;;18.35;69.16;101289.69;5029407;28;20096;-81
2023/07/20 00:12:34;;;;;;;7.93;4.88;;;;;;;18.36;68.87;101294.06;5023508;28;20029;-81
2023/07/20 00:15:00;;;;;;;11.30;5.38;;;;;;;18.43;69.56;101294.53;5017711;28;20026;-81
2023/07/20 00:17:25;;;;;;;7.80;5.25;;;;;;;18.44;69.23;101295.41;5046233;28;20472;-81
2023/07/20 00:19:50;;;;;;;9.38;5.15;;;;;;;18.48;68.13;101296.91;5018526;28;20030;-81
2023/07/20 00:22:16;;;;;;;9.40;5.25;;;;;;;18.51;67.97;101297.59;5026922;28;20040;-81
2023/07/20 00:24:41;;;;;;;9.15;5.35;;;;;;;18.49;68.35;101296.81;5025898;28;20018;-81
2023/07/20 00:27:06;;;;;;;11.88;4.78;;;;;;;18.44;68.53;101300.75;5022647;28;20292;-81
2023/07/20 00:29:32;;;;;;;7.85;5.13;;;;;;;18.35;69.89;101305.75;5027380;28;20026;-81
2023/07/20 00:31:58;;;;;;;10.38;5.07;;;;;;;18.28;69.44;101299.09;5017308;28;20021;-81
2023/07/20 00:34:23;;;;;;;9.65;5.03;;;;;;;18.24;69.81;101302.94;5027525;28;20033;-81
2023/07/20 00:36:49;;;;;;;10.20;4.55;;;;;;;18.19;69.37;101298.84;5033796;28;20392;-81
2023/07/20 00:39:14;;;;;;;9.13;5.45;;;;;;;18.20;68.87;101305.91;5028048;28;20041;-81
2023/07/20 00:41:39;;;;;;;9.50;4.85;;;;;;;18.20;68.94;101295.19;5028152;28;20045;-81
2023/07/20 00:44:05;;;;;;;10.15;5.20;;;;;;;18.20;69.82;101297.88;5019670;28;20030;-81
2023/07/20 00:46:32;;;;;;;9.40;5.25;;;;;;;18.18;69.81;101302.44;5027790;28;20021;-81
2023/07/20 00:48:58;;;;;;;9.18;5.72;;;;;;;18.13;69.20;101299.22;5034011;28;20024;-81
2023/07/20 00:51:25;;;;;;;9.15;5.05;;;;;;;18.13;69.12;101299.22;5032775;28;20029;-81
2023/07/20 00:53:50;;;;;;;9.45;5.25;;;;;;;17.93;68.99;101313.88;5024031;28;20075;-81
2023/07/20 00:56:16;;;;;;;10.70;4.22;;;;;;;17.87;68.52;101304.44;5034350;28;20025;-81
2023/07/20 00:58:42;;;;;;;7.53;5.22;;;;;;;17.85;68.05;101309.00;5021593;28;20383;-81
2023/07/20 01:01:07;;;;;;;9.52;6.32;;;;;;;17.92;69.49;101310.34;5024322;28;20029;-81
2023/07/20 01:03:33;;;;;;;9.35;5.43;;;;;;;17.95;70.75;101303.91;5016023;28;20033;-81
2023/07/20 01:06:33;;;;;;;9.82;5.63;;;;;;;17.87;70.36;101303.56;5030001;28;20026;-81
2023/07/20 01:09:11;;;;;;;11.93;6.40;;;;;;;17.80;72.05;101295.91;5021362;28;20036;-81
2023/07/20 01:11:39;;;;;;;13.32;6.20;;;;;;;17.69;72.85;101295.72;5018335;28;20393;-81
2023/07/20 01:14:05;;;;;;;10.15;5.38;;;;;;;17.80;71.84;101293.22;5020402;28;20022;-81
2023/07/20 01:16:30;;;;;;;10.27;5.50;;;;;;;17.98;71.74;101301.91;5021513;28;20384;-81
2023/07/20 01:18:55;;;;;;;12.40;5.40;;;;;;;18.13;71.69;101294.72;5023732;28;20033;-81
2023/07/20 01:21:29;;;;;;;10.15;5.93;;;;;;;18.00;72.57;101308.03;5020653;28;20026;-81
2023/07/20 01:24:17;;;;;;;12.45;6.00;;;;;;;17.99;71.94;101306.31;5020919;28;20546;-81
2023/07/20 01:26:52;;;;;;;11.73;5.45;;;;;;;17.92;72.41;101306.81;5021976;28;20485;-81
2023/07/20 01:29:28;;;;;;;12.43;5.85;;;;;;;17.97;71.70;101312.72;5019002;28;20025;-81
2023/07/20 01:31:54;;;;;;;10.98;6.05;;;;;;;18.07;72.91;101319.19;5016788;28;20472;-81
2023/07/20 01:34:22;;;;;;;9.13;5.63;;;;;;;18.12;71.99;101316.22;5026427;28;20037;-81
2023/07/20 01:36:50;;;;;;;10.00;6.00;;;;;;;18.17;72.14;101316.78;5017389;28;20038;-81
2023/07/20 01:39:16;;;;;;;12.27;5.47;;;;;;;18.23;71.29;101311.03;5021297;28;20030;-81
2023/07/20 01:41:42;;;;;;;13.77;6.88;;;;;;;18.31;71.45;101322.97;5014477;28;20105;-81
2023/07/20 01:44:08;;;;;;;14.52;6.40;;;;;;;18.31;71.73;101316.75;5015798;28;20104;-81
2023/07/20 01:46:33;;;;;;;13.30;6.45;;;;;;;18.32;72.13;101318.47;5026829;28;20064;-81
2023/07/20 01:48:59;;;;;;;11.55;6.80;;;;;;;18.34;72.21;101317.41;5029288;28;20018;-81
2023/07/20 01:51:24;;;;;;;13.63;6.43;;;;;;;18.43;71.46;101321.31;5031273;28;20122;-81
2023/07/20 01:53:49;;;;;;;11.23;6.00;;;;;;;18.48;70.94;101313.84;5028391;28;20025;-81
2023/07/20 01:56:15;;;;;;;12.43;6.88;;;;;;;18.47;71.57;101324.66;5018261;28;20108;-81
2023/07/20 01:58:40;;;;;;;14.27;6.75;;;;;;;18.44;71.89;101323.03;5033093;28;20029;-81
2023/07/20 02:01:05;;;;;;;12.77;6.50;;;;;;;18.36;71.77;101322.66;5024985;28;20029;-81
2023/07/20 02:03:30;;;;;;;11.77;7.07;;;;;;;18.32;71.68;101324.69;5029924;28;20017;-81
2023/07/20 02:05:56;;;;;;;12.68;8.18;;;;;;;18.23;71.93;101333.34;5027598;28;20033;-81
2023/07/20 02:08:22;;;;;;;12.07;8.10;;;;;;;18.15;72.54;101332.09;5027769;28;20018;-81
2023/07/20 02:10:48;;;;;;;12.90;9.40;;;;;;;18.14;72.47;101331.25;5019178;28;20392;-81
2023/07/20 02:13:14;;;;;;;14.02;9.68;;;;;;;18.09;73.15;101327.97;5024573;28;20037;-81
2023/07/20 02:15:40;;;;;;;12.15;9.20;;;;;;;18.06;72.55;101330.88;5028527;28;20025;-81
2023/07/20 02:18:05;;;;;;;13.70;9.98;;;;;;;18.04;72.90;101327.41;5030771;28;20108;-81
2023/07/20 02:20:31;;;;;;;13.70;9.48;;;;;;;18.06;73.30;101331.72;5018856;28;20040;-81
2023/07/20 02:22:56;;;;;;;12.13;9.80;;;;;;;18.07;72.78;101336.09;5026717;28;20107;-81
2023/07/20 02:25:21;;;;;;;15.05;9.60;;;;;;;18.13;72.17;101342.88;5025931;28;20036;-81
2023/07/20 02:27:47;;;;;;;17.15;10.70;;;;;;;18.15;72.35;101335.63;5028048;28;20036;-81
2023/07/20 02:30:13;;;;;;;13.75;9.82;;;;;;;18.23;72.64;101340.47;5018942;28;20532;-81
2023/07/20 02:32:38;;;;;;;13.15;10.60;;;;;;;18.22;72.58;101334.25;5023044;28;20033;-81
2023/07/20 02:35:04;;;;;;;17.13;10.18;;;;;;;18.28;72.26;101339.25;5022699;28;20052;-81
2023/07/20 02:37:30;;;;;;;12.90;9.40;;;;;;;18.34;71.18;101335.31;5029387;28;20029;-81
2023/07/20 02:39:55;;;;;;;13.45;10.35;;;;;;;18.36;72.06;101339.59;5017830;28;20018;-81
2023/07/20 02:42:22;;;;;;;11.02;9.63;;;;;;;18.40;71.83;101345.59;5020443;28;20073;-81
2023/07/20 02:44:48;;;;;;;12.48;10.80;;;;;;;18.35;72.33;101353.94;5025461;28;20381;-81
2023/07/20 02:47:13;;;;;;;15.48;11.57;;;;;;;18.37;71.94;101343.13;5018092;28;20033;-81
2023/07/20 02:49:38;;;;;;;17.17;11.80;;;;;;;18.36;72.30;101354.78;5026366;28;20132;-81
2023/07/20 02:52:04;;;;;;;17.00;11.50;;;;;;;18.30;72.58;101353.38;5027573;28;20033;-81
2023/07/20 02:54:30;;;;;;;12.13;9.93;;;;;;;18.28;73.39;101357.97;5024458;28;20026;-81
2023/07/20 02:56:56;;;;;;;13.80;10.32;;;;;;;18.23;72.38;101352.06;5031468;28;20357;-81
2023/07/20 02:59:21;;;;;;;14.10;10.50;;;;;;;18.26;72.51;101359.88;5044611;28;20694;-81
2023/07/20 03:01:46;;;;;;;14.63;10.35;;;;;;;18.31;72.17;101362.25;5021895;28;20396;-81
2023/07/20 03:04:11;;;;;;;12.70;9.70;;;;;;;18.29;71.71;101365.03;5024006;28;20160;-81
2023/07/20 03:06:37;;;;;;;14.63;9.65;;;;;;;18.27;71.58;101364.28;5016380;28;20056;-81
2023/07/20 03:09:06;;;;;;;12.60;9.63;;;;;;;18.28;71.84;101366.00;5031947;28;20025;-81
2023/07/20 03:11:32;;;;;;;11.18;9.60;;;;;;;18.24;72.57;101367.16;5020317;28;20029;-81
2023/07/20 03:13:58;;;;;;;11.25;9.32;;;;;;;18.20;72.36;101362.09;5031361;28;20026;-81
2023/07/20 03:16:24;;;;;;;12.15;8.75;;;;;;;18.18;72.29;101375.56;5023607;28;20021;-81
2023/07/20 03:18:50;;;;;;;11.68;8.93;;;;;;;18.12;72.81;101375.09;5019170;28;20362;-81
2023/07/20 03:21:16;;;;;;;12.60;9.70;;;;;;;18.02;72.72;101381.03;5020631;28;20039;-81
2023/07/20 03:23:42;;;;;;;10.25;8.55;;;;;;;17.98;73.13;101381.31;5023051;28;20369;-81
2023/07/20 03:26:10;;;;;;;9.13;7.22;;;;;;;17.99;72.55;101386.56;5020840;28;20526;-81
2023/07/20 03:28:37;;;;;;;11.27;7.07;;;;;;;17.94;72.37;101386.00;5022141;28;20061;-81
2023/07/20 03:31:02;;;;;;;9.13;7.00;;;;;;;17.87;73.17;101384.66;5024488;28;20025;-81
2023/07/20 03:33:29;;;;;;;8.93;6.70;;;;;;;17.82;72.42;101386.78;5023710;28;20025;-81
2023/07/20 03:35:55;;;;;;;8.00;6.25;;;;;;;17.84;72.68;101392.88;5025959;28;20495;-81
2023/07/20 03:38:24;;;;;;;6.47;5.57;;;;;;;17.82;72.10;101384.09;5024424;28;20040;-81
2023/07/20 03:40:51;;;;;;;7.70;5.57;;;;;;;17.79;73.16;101384.28;5019494;28;20361;-81
2023/07/20 03:43:16;;;;;;;5.47;4.85;;;;;;;17.78;71.79;101386.09;5016560;28;20042;-81
2023/07/20 03:45:42;;;;;;;5.22;4.72;;;;;;;17.76;72.07;101384.47;5028522;28;20495;-81
2023/07/20 03:48:07;;;;;;;6.40;5.07;;;;;;;17.74;71.72;101386.38;5022704;28;20025;-81
2023/07/20 03:50:32;;;;;;;5.40;4.90;;;;;;;17.69;74.20;101396.47;5017723;28;20033;-81
2023/07/20 03:52:58;;;;;;;5.45;4.70;;;;;;;17.70;73.18;101395.50;5026884;28;20026;-81
2023/07/20 03:55:23;;;;;;;6.18;5.25;;;;;;;17.72;72.24;101390.91;5013425;28;20064;-81
2023/07/20 03:57:50;;;;;;;6.82;5.20;;;;;;;17.69;72.98;101391.97;5031188;28;20037;-81
2023/07/20 04:00:16;;;;;;;6.95;5.13;;;;;;;17.66;73.68;101391.28;5023300;28;20034;-81
2023/07/20 04:02:42;;;;;;;5.30;4.78;;;;;;;17.70;72.54;101406.22;5018022;28;20156;-81
2023/07/20 04:05:07;;;;;;;8.10;6.10;;;;;;;17.67;72.96;101393.88;5023609;28;20116;-81
2023/07/20 04:07:32;;;;;;;7.47;6.05;;;;;;;17.75;72.83;101410.34;5025235;28;20037;-81
2023/07/20 04:09:57;;;;;;;7.40;6.47;;;;;;;17.76;72.59;101398.69;5034568;28;20461;-81
2023/07/20 04:12:23;;;;;;;11.70;7.68;;;;;;;17.72;72.21;101410.53;5040905;28;20036;-81
2023/07/20 04:14:48;;;;;;;9.35;8.13;;;;;;;17.65;73.65;101409.16;5034058;28;20053;-81
2023/07/20 04:17:13;;;;;;;8.68;7.20;;;;;;;17.65;72.85;101405.63;5030111;28;20031;-81
2023/07/20 04:19:38;;;;;;;11.45;8.10;;;;;;;17.62;73.04;101409.34;5037003;28;20033;-81
2023/07/20 04:22:04;;;;;;;11.57;8.70;;;;;;;17.60;73.27;101404.09;5031504;28;20030;-81
2023/07/20 04:24:29;;;;;;;8.82;7.60;;;;;;;17.65;72.79;101409.16;5032911;28;20048;-81
2023/07/20 04:26:54;;;;;;;8.98;7.30;;;;;;;17.63;72.60;101410.22;5031816;28;20473;-81
2023/07/20 04:29:20;;;;;;;9.45;7.22;;;;;;;17.52;73.50;101413.53;5032428;28;20130;-81
2023/07/20 04:31:45;;;;;;;7.78;6.50;;;;;;;17.46;74.14;101412.09;5029685;28;20036;-81
2023/07/20 04:34:10;;;;;;;7.72;6.35;;;;;;;17.53;73.16;101415.22;5029480;28;20029;-81
2023/07/20 04:36:35;;;;;;;6.70;6.00;;;;;;;17.63;73.05;101413.75;5041690;28;20036;-81
2023/07/20 04:39:01;;;;;;;9.23;6.07;;;;;;;17.63;73.04;101413.75;5022888;28;20053;-81
2023/07/20 04:41:26;;;;;;;10.20;7.25;;;;;;;17.58;73.42;101418.53;5031516;28;20393;-81
2023/07/20 04:43:52;;;;;;;11.25;7.30;;;;;;;17.51;73.32;101407.31;5026057;28;20033;-81
2023/07/20 04:46:18;;;;;;;9.10;7.20;;;;;;;17.46;73.08;101404.06;5026394;28;20048;-81
2023/07/20 04:48:44;;;;;;;9.73;7.13;;;;;;;17.46;74.25;101413.91;5029934;28;20108;-81
2023/07/20 04:51:10;;;;;;;9.52;6.60;;;;;;;17.42;73.60;101412.34;5030743;28;20099;-81
2023/07/20 04:53:35;;;;;;;9.95;7.30;;;;;;;17.34;73.85;101412.81;5042530;28;20035;-81
2023/07/20 04:56:00;;;;;;;9.85;6.30;;;;;;;17.39;73.09;101418.72;5038487;28;20030;-81
2023/07/20 04:58:26;;;;;;;7.82;6.97;;;;;;;17.42;73.05;101407.88;5025876;28;20032;-81
2023/07/20 05:00:51;;;;;;;9.55;7.47;;;;;;;17.44;73.09;101413.13;5023661;28;20036;-81
2023/07/20 05:03:17;;;;;;;10.90;7.88;;;;;;;17.44;73.49;101413.13;5028525;28;20075;-81
2023/07/20 05:05:43;;;;;;;9.00;7.05;;;;;;;17.41;73.43;101414.16;5034186;28;20112;-81
2023/07/20 05:08:08;;;;;;;9.13;7.15;;;;;;;17.42;73.66;101417.69;5028691;28;20039;-81
2023/07/20 05:10:33;;;;;;;7.32;6.63;;;;;;;17.46;73.01;101411.22;5021998;28;20025;-81
2023/07/20 05:12:59;;;;;;;6.28;5.38;;;;;;;17.47;72.55;101412.94;5032113;28;20017;-81
2023/07/20 05:15:24;;;;;;;10.40;6.85;;;;;;;17.47;73.12;101411.13;5027438;28;20025;-81
2023/07/20 05:17:50;;;;;;;8.05;6.47;;;;;;;17.45;73.28;101406.84;5025869;28;20068;-81
2023/07/20 05:20:15;;;;;;;8.43;6.43;;;;;;;17.46;73.33;101406.72;5038533;28;20067;-81
2023/07/20 05:22:43;;;;;;;10.23;8.98;;;;;;;17.43;73.04;101403.38;5036204;28;20022;-81
2023/07/20 05:25:09;;;;;;;12.48;8.35;;;;;;;17.50;73.36;101404.75;5031837;28;20033;-81
2023/07/20 05:27:37;;;;;;;8.70;7.53;;;;;;;17.52;74.52;101402.81;5027212;28;20078;-81
2023/07/20 05:30:03;;;;;;;12.15;8.63;;;;;;;17.54;73.40;101404.47;5033008;28;20017;-81
2023/07/20 05:32:28;;;;;;;11.48;8.82;;;;;;;17.57;73.17;101406.09;5017845;28;20032;-81
2023/07/20 05:34:54;;;;;;;10.15;8.88;;;;;;;17.59;73.08;101420.22;5018636;28;20504;-81
2023/07/20 05:37:19;;;;;;;9.60;8.00;;;;;;;17.59;72.94;101430.94;5033480;28;20057;-81
2023/07/20 05:39:45;;;;;;;13.98;9.32;;;;;;;17.59;72.70;101428.25;5025666;28;20029;-81
2023/07/20 05:42:10;;;;;;;11.52;8.95;;;;;;;17.57;72.61;101425.66;5026963;28;20045;-81
2023/07/20 05:44:35;;;;;;;9.55;7.85;;;;;;;17.55;73.22;101432.06;5030268;28;20021;-81
2023/07/20 05:47:02;;;;;;;11.30;8.38;;;;;;;17.58;72.78;101429.22;5016914;28;20041;-81
2023/07/20 05:49:27;;;;;;;12.25;8.68;;;;;;;17.57;73.02;101440.84;5025949;28;20034;-81
2023/07/20 05:51:55;;;;;;;10.25;8.27;;;;;;;17.62;72.40;101441.41;5022573;28;20052;-81
2023/07/20 05:54:21;;;;;;;10.13;7.93;;;;;;;17.65;71.88;101441.25;5014726;28;20141;-81
2023/07/20 05:56:46;;;;;;;11.50;8.07;;;;;;;17.64;71.83;101444.88;5026416;28;20117;-81
2023/07/20 05:59:12;;;;;;;10.43;7.32;;;;;;;17.66;72.18;101448.31;5023556;28;20117;-81
2023/07/20 06:01:37;;;;;;;11.20;7.63;;;;;;;17.70;71.91;101443.66;5027022;28;20063;-81
2023/07/20 06:04:03;;;;;;;9.45;7.70;;;;;;;17.77;71.73;101445.91;5028534;28;20434;-81
2023/07/20 06:06:28;;;;;;;10.38;7.82;;;;;;;17.84;71.69;101449.03;5029065;28;20485;-81
2023/07/20 06:08:54;;;;;;;8.00;6.60;;;;;;;18.08;71.21;101444.84;5028545;28;20112;-81
2023/07/20 06:11:20;;;;;;;7.85;7.00;;;;;;;18.32;70.03;101445.13;5025229;28;20056;-81
2023/07/20 06:13:45;;;;;;;9.25;6.35;;;;;;;18.51;69.42;101454.69;5014293;28;20021;-81
2023/07/20 06:16:10;;;;;;;6.43;4.97;;;;;;;18.63;68.48;101453.91;5029399;28;20047;-81
2023/07/20 06:18:35;;;;;;;6.45;5.70;;;;;;;18.67;68.82;101449.22;5020464;28;20034;-81
2023/07/20 06:21:01;;;;;;;5.97;5.35;;;;;;;18.77;67.35;101463.78;5025632;28;20111;-81
2023/07/20 06:23:26;;;;;;;7.65;5.50;;;;;;;18.82;67.35;101459.84;5035058;28;20075;-81
2023/07/20 06:25:51;;;;;;;6.10;5.40;;;;;;;19.00;67.06;101460.47;5024783;28;20477;-81
2023/07/20 06:28:17;;;;;;;5.97;4.53;;;;;;;19.30;66.02;101462.06;5018779;28;20029;-81
2023/07/20 06:30:43;;;;;;;6.15;5.15;;;;;;;19.41;65.84;101461.34;5014386;28;20137;-81
2023/07/20 06:33:08;;;;;;;6.60;5.40;;;;;;;19.67;66.73;101455.09;5012338;28;20025;-84
2023/07/20 06:35:35;;;;;;;5.28;4.45;;;;;;;19.80;64.24;101461.34;5017332;28;20504;-80
2023/07/20 06:38:00;;;;;;;7.22;5.03;;;;;;;19.82;65.41;101454.06;5015566;28;20061;-81
2023/07/20 06:40:26;;;;;;;7.68;5.05;;;;;;;19.91;64.40;101444.50;5022180;28;20076;-81
2023/07/20 06:42:51;;;;;;;8.02;6.30;;;;;;;19.99;64.38;101460.91;5017116;28;20452;-81
2023/07/20 06:45:17;;;;;;;6.57;5.97;;;;;;;20.10;63.75;101455.69;5017538;28;20026;-81
2023/07/20 06:47:42;;;;;;;7.10;6.40;;;;;;;20.19;64.33;101456.84;5026703;28;20053;-81
2023/07/20 06:50:08;;;;;;;7.72;6.72;;;;;;;20.07;62.89;101457.72;5014506;28;20091;-81
2023/07/20 06:52:34;;;;;;;6.43;5.82;;;;;;;20.03;64.42;101457.06;5046828;28;20040;-81
2023/07/20 06:54:59;;;;;;;6.57;5.90;;;;;;;19.91;65.36;101457.03;5030794;28;20481;-81
2023/07/20 06:57:25;;;;;;;6.70;6.00;;;;;;;19.74;64.09;101456.41;5019648;28;20473;-81
2023/07/20 06:59:50;;;;;;;7.53;6.55;;;;;;;19.53;64.50;101463.19;5022452;28;20021;-80
2023/07/20 07:02:15;;;;;;;6.38;5.78;;;;;;;19.41;64.86;101459.53;5019388;28;20017;-81
2023/07/20 07:04:42;;;;;;;7.00;6.30;;;;;;;19.35;65.04;101451.88;5031200;28;20017;-80
2023/07/20 07:07:07;;;;;;;11.05;6.10;;;;;;;19.33;64.68;101460.03;5019710;28;20102;-82
2023/07/20 07:09:32;;;;;;;6.22;5.57;;;;;;;19.32;65.59;101460.16;5032775;28;20029;-79
2023/07/20 07:11:57;;;;;;;7.40;5.63;;;;;;;19.29;64.73;101468.38;5030417;28;20381;-80
2023/07/20 07:14:23;;;;;;;6.07;5.45;;;;;;;19.26;64.89;101473.97;5019663;28;20261;-79
2023/07/20 07:16:48;;;;;;;6.82;5.80;;;;;;;19.29;65.20;101471.06;5023605;28;20508;-79
2023/07/20 07:19:13;;;;;;;6.63;5.70;;;;;;;19.24;65.53;101479.41;5022206;28;20061;-79
2023/07/20 07:21:38;;;;;;;6.43;5.82;;;;;;;19.28;64.64;101480.94;5022181;28;20107;-79
2023/07/20 07:24:06;;;;;;;7.22;5.25;;;;;;;19.31;65.22;101482.56;5031383;28;20037;-79
2023/07/20 07:26:32;;;;;;;5.10;4.70;;;;;;;19.29;64.43;101481.78;5025474;28;20111;-79
2023/07/20 07:28:57;;;;;;;6.05;5.07;;;;;;;19.36;64.90;101477.75;5016011;28;20065;-79
2023/07/20 07:31:24;;;;;;;5.18;4.65;;;;;;;19.40;63.87;101473.91;5028835;28;20533;-79
2023/07/20 07:33:49;;;;;;;7.03;5.00;;;;;;;19.45;64.49;101470.91;5022661;28;20033;-79
2023/07/20 07:36:15;;;;;;;5.35;4.13;;;;;;;19.46;63.48;101473.50;5022595;28;20029;-79
2023/07/20 07:38:40;;;;;;;4.35;3.63;;;;;;;19.52;63.39;101470.38;5028473;28;20383;-79
2023/07/20 07:41:06;;;;;;;4.75;3.22;;;;;;;19.59;62.98;101474.38;5023514;28;20064;-79
2023/07/20 07:43:31;;;;;;;4.25;2.97;;;;;;;19.65;62.29;101473.13;5033396;28;20469;-79
2023/07/20 07:45:57;;;;;;;3.70;2.70;;;;;;;19.70;62.31;101481.72;5022242;28;20062;-79
2023/07/20 07:48:22;;;;;;;3.10;2.58;;;;;;;19.71;62.27;101477.22;5017215;28;20021;-80
2023/07/20 07:50:48;;;;;;;2.45;2.22;;;;;;;19.71;60.93;101487.94;5038254;28;20484;-79
2023/07/20 07:53:13;;;;;;;2.47;2.28;;;;;;;19.71;61.47;101491.47;5029239;28;20060;-79
2023/07/20 07:55:39;;;;;;;2.38;2.17;;;;;;;19.73;60.94;101492.25;5023949;28;20017;-79
2023/07/20 07:58:04;;;;;;;2.47;2.28;;;;;;;19.82;60.30;101491.63;5026404;28;20025;-79
2023/07/20 08:00:30;;;;;;;2.55;2.35;;;;;;;19.98;60.48;101487.88;5019751;28;20030;-79
2023/07/20 08:02:55;;;;;;;2.88;2.60;;;;;;;20.79;58.72;101487.50;5038116;28;20476;-79
2023/07/20 08:05:20;;;;;;;2.88;2.67;;;;;;;21.80;54.62;101493.41;5017378;28;20037;-79
2023/07/20 08:07:45;;;;;;;2.95;2.40;;;;;;;23.04;51.39;101492.50;5030320;28;20033;-79
2023/07/20 08:10:11;;;;;;;3.17;2.35;;;;;;;23.80;48.50;101487.06;5025803;28;20033;-79
2023/07/20 08:12:36;;;;;;;2.72;2.50;;;;;;;24.31;47.36;101484.38;5020477;28;20029;-79
2023/07/20 08:15:02;;;;;;;2.85;1.90;;;;;;;24.48;46.49;101490.16;5033209;28;20033;-79
2023/07/20 08:17:27;;;;;;;2.17;1.80;;;;;;;25.31;46.42;101491.69;5022179;28;20489;-79
2023/07/20 08:19:53;;;;;;;2.42;1.70;;;;;;;25.03;45.50;101490.63;5032134;28;20472;-79
2023/07/20 08:22:18;;;;;;;3.33;1.98;;;;;;;24.14;46.04;101499.38;5019259;28;20029;-79
2023/07/20 08:24:44;;;;;;;2.03;1.83;;;;;;;22.74;49.17;101503.06;5016376;28;20034;-79
2023/07/20 08:27:09;;;;;;;1.90;1.80;;;;;;;22.34;50.31;101500.88;5021549;28;20477;-80
2023/07/20 08:29:35;;;;;;;1.90;1.67;;;;;;;22.16;52.35;101503.19;5023709;28;20025;-79
2023/07/20 08:32:01;;;;;;;2.10;1.90;;;;;;;22.18;51.82;101503.91;5030180;28;20100;-79
2023/07/20 08:34:27;;;;;;;5.13;2.10;;;;;;;22.08;52.99;101494.81;5020158;28;20052;-79
2023/07/20 08:36:52;;;;;;;1.92;1.80;;;;;;;22.37;51.65;101500.63;5017693;28;20505;-79
2023/07/20 08:39:17;;;;;;;2.53;2.33;;;;;;;22.15;51.65;101491.56;5024516;28;20037;-79
2023/07/20 08:41:43;;;;;;;2.60;2.40;;;;;;;21.81;53.31;101490.59;5029878;28;20045;-79
2023/07/20 08:44:10;;;;;;;3.58;3.08;;;;;;;22.10;51.18;101501.81;5024495;28;20117;-79
2023/07/20 08:46:38;;;;;;;3.03;2.65;;;;;;;22.57;50.58;101491.81;5026320;28;20391;-79
2023/07/20 08:49:04;;;;;;;4.35;2.80;;;;;;;22.71;52.42;101482.63;5030443;28;20031;-79
2023/07/20 08:51:30;;;;;;;3.17;2.88;;;;;;;23.77;48.01;101488.19;5030126;28;20481;-79
2023/07/20 08:53:56;;;;;;;2.60;2.40;;;;;;;25.26;46.72;101475.03;5027669;28;20531;-79
2023/07/20 08:56:25;;;;;;;2.75;2.55;;;;;;;26.63;43.06;101482.78;5018338;28;20045;-79
2023/07/20 08:58:51;;;;;;;2.50;2.30;;;;;;;27.46;39.59;101489.78;5030364;28;20230;-79
2023/07/20 09:01:18;;;;;;;3.05;2.50;;;;;;;27.73;38.10;101490.75;5018646;28;20033;-79
2023/07/20 09:03:45;;;;;;;2.95;1.75;;;;;;;27.93;36.79;101494.09;5033698;28;20029;-79
2023/07/20 09:06:10;;;;;;;1.58;1.48;;;;;;;27.78;39.95;101488.41;5014559;28;20037;-79
2023/07/20 09:08:42;;;;;;;2.75;1.50;;;;;;;26.91;42.42;101484.47;5019436;28;20465;-79
2023/07/20 09:11:09;;;;;;;3.05;1.77;;;;;;;26.27;44.62;101485.31;5016216;28;20029;-81
2023/07/20 09:13:35;;;;;;;2.65;1.90;;;;;;;25.79;43.61;101483.59;5023918;28;20028;-82
2023/07/20 09:16:00;;;;;;;3.22;1.85;;;;;;;25.43;44.61;101486.00;5025390;28;20480;-82
2023/07/20 09:18:31;;;;;;;3.03;2.55;;;;;;;25.16;45.45;101480.44;5027021;28;20034;-82
2023/07/20 09:21:05;;;;;;;2.53;2.33;;;;;;;25.13;45.12;101478.00;5034943;28;20188;-82
2023/07/20 09:23:35;;;;;;;3.65;2.08;;;;;;;25.97;42.73;101482.81;5022071;28;20022;-82
2023/07/20 09:26:08;;;;;;;1.77;1.67;;;;;;;25.63;42.04;101478.72;5027900;28;20504;-82
2023/07/20 09:28:42;;;;;;;2.22;2.03;;;;;;;26.02;41.36;101481.41;5019687;28;20054;-81
2023/07/20 09:31:17;;;;;;;1.55;1.45;;;;;;;25.76;41.77;101480.31;5023825;28;20029;-81
2023/07/20 09:33:42;;;;;;;1.85;1.02;;;;;;;25.49;43.04;101473.75;5024830;28;20468;-79
2023/07/20 09:36:11;;;;;;;2.88;1.20;;;;;;;25.92;42.06;101476.00;5013752;28;20022;-79
2023/07/20 09:38:36;;;;;;;1.45;1.20;;;;;;;26.41;42.80;101460.44;5017656;28;20052;-79
2023/07/20 09:41:02;;;;;;;1.30;1.20;;;;;;;26.90;41.03;101474.59;5028863;28;20501;-79
2023/07/20 09:43:31;;;;;;;1.25;1.13;;;;;;;27.17;40.53;101468.31;5024745;28;20029;-79
2023/07/20 09:45:58;;;;;;;2.20;1.48;;;;;;;27.03;39.96;101465.25;5018225;28;20022;-79
2023/07/20 09:48:24;;;;;;;2.47;1.60;;;;;;;26.14;40.47;101465.81;5027137;28;20029;-79
2023/07/20 09:50:51;;;;;;;1.70;1.60;;;;;;;26.08;41.44;101469.97;5022218;28;20041;-79
2023/07/20 09:53:20;;;;;;;1.10;1.00;;;;;;;26.13;39.94;101470.38;5022196;28;20034;-78
2023/07/20 09:55:47;;;;;;;1.45;1.17;;;;;;;25.88;39.93;101460.16;5020922;28;20380;-79
2023/07/20 09:58:13;;;;;;;3.63;1.45;;;;;;;26.17;41.51;101462.81;5033642;28;20086;-79
2023/07/20 10:00:43;;;;;;;2.40;1.20;;;;;;;27.10;41.68;101458.25;5024165;28;20263;-79
2023/07/20 10:03:10;;;;;;;1.67;1.05;;;;;;;27.43;39.76;101460.25;5027964;28;20404;-79
2023/07/20 10:05:42;;;;;;;1.73;1.25;;;;;;;27.46;37.07;101456.34;5019834;28;20567;-79
2023/07/20 10:08:11;;;;;;;1.00;0.80;;;;;;;28.00;38.42;101453.56;5023449;28;20022;-79
2023/07/20 10:10:40;;;;;;;2.38;1.13;;;;;;;28.27;36.91;101453.38;5021485;28;20029;-79
2023/07/20 10:13:10;;;;;;;2.47;0.80;;;;;;;27.87;38.04;101459.44;5020563;28;20098;-79
2023/07/20 10:15:54;;;;;;;0.80;0.80;;;;;;;27.79;37.54;101460.22;5032649;28;20105;-79
2023/07/20 10:18:28;;;;;;;2.17;1.00;;;;;;;27.86;37.83;101461.28;5017413;28;20037;-79
2023/07/20 10:20:55;;;;;;;1.02;0.93;;;;;;;27.37;37.05;101454.56;5020950;28;20359;-79
2023/07/20 10:23:21;;;;;;;1.88;0.90;;;;;;;26.99;39.06;101459.28;5035418;28;20029;-79
2023/07/20 10:25:47;;;;;;;2.55;1.00;;;;;;;26.90;37.45;101447.47;5027389;28;20103;-79
2023/07/20 10:28:13;;;;;;;1.10;0.85;;;;;;;27.30;37.47;101448.94;5027495;28;20490;-79
2023/07/20 10:30:39;;;;;;;1.35;0.70;;;;;;;27.83;38.42;101445.28;5019153;28;20029;-79
2023/07/20 10:33:06;;;;;;;0.85;0.70;;;;;;;27.79;36.92;101445.78;5031514;28;20461;-82
2023/07/20 10:35:51;;;;;;;0.70;0.60;;;;;;;27.50;38.96;101446.03;5021361;28;20036;-80
2023/07/20 10:38:16;;;;;;;1.98;0.80;;;;;;;26.91;37.51;101441.06;5024919;28;20029;-80
2023/07/20 10:40:41;;;;;;;2.23;0.73;;;;;;;26.60;38.32;101442.38;5026804;28;20087;-79
2023/07/20 10:43:09;;;;;;;1.25;0.93;;;;;;;26.94;37.56;101438.00;5025964;28;20296;-79
2023/07/20 10:45:50;;;;;;;2.05;0.90;;;;;;;27.31;38.04;101439.75;5023673;28;20136;-79
2023/07/20 10:48:25;;;;;;;1.60;1.10;;;;;;;27.73;36.53;101435.53;5024219;28;20030;-79
2023/07/20 10:51:14;;;;;;;0.90;0.80;;;;;;;27.99;37.63;101427.41;5020284;28;20031;-79
2023/07/20 10:53:39;;;;;;;2.28;0.80;;;;;;;27.60;35.17;101428.63;5034313;28;20045;-79
2023/07/20 10:56:18;;;;;;;1.75;0.90;;;;;;;27.29;36.59;101430.94;5014965;28;20038;-79
2023/07/20 10:58:44;;;;;;;1.98;0.93;;;;;;;27.26;35.78;101430.38;5021874;28;20032;-79
2023/07/20 11:01:14;;;;;;;1.70;0.80;;;;;;;26.98;35.86;101430.44;5035863;28;20025;-79
2023/07/20 11:03:40;;;;;;;2.15;0.82;;;;;;;27.03;39.35;101436.25;5030553;28;20021;-79
2023/07/20 11:06:24;;;;;;;0.80;0.80;;;;;;;27.09;38.13;101434.78;5033279;28;20029;-79
2023/07/20 11:08:55;;;;;;;0.90;0.90;;;;;;;27.33;37.32;101434.19;5030633;28;20036;-79
2023/07/20 11:11:24;;;;;;;1.50;0.90;;;;;;;27.35;36.83;101424.03;5019589;28;20022;-79
2023/07/20 11:13:59;;;;;;;1.35;1.00;;;;;;;27.18;36.53;101420.28;5022399;28;20048;-79
2023/07/20 11:16:44;;;;;;;0.93;0.80;;;;;;;27.09;37.79;101427.53;5018296;28;20036;-79
2023/07/20 11:19:23;;;;;;;1.23;0.90;;;;;;;27.53;37.49;101426.72;5029842;28;20044;-79